DLH8XA EDDV-EDDF
Flight info
| Callsign | DLH8XA |
|---|---|
| Flight time | 0h 40m |
| Altitude | 17000 |
| Route | TOLTA1F TOLTA T154 ROBAR T152 KERAX KERAX5A |
| Aircraft | A321/M-SDE3FGHIRWY/LB1 |
Departure
| Time | 2026-05-04 08:48 |
|---|---|
| Airport | Hannover Airport (EDDV) |
Arrival
| Time | 2026-05-04 09:29 |
|---|---|
| Airport | Frankfurt Main Airport (EDDF) |
| Time | Latitude | Longitude | Altitude | Speed | Heading |
|---|---|---|---|---|---|
| 2026-05-04 08:19 | 52.45841 | 9.69316 | 179 ft | 0 kts | 47° |
| 2026-05-04 08:40 | 52.45804 | 9.69235 | 179 ft | 4 kts | 95° |
| 2026-05-04 08:40 | 52.45813 | 9.69199 | 179 ft | 4 kts | 141° |
| 2026-05-04 08:40 | 52.45834 | 9.69174 | 179 ft | 3 kts | 143° |
| 2026-05-04 08:41 | 52.45837 | 9.69170 | 179 ft | 0 kts | 143° |
| 2026-05-04 08:43 | 52.45829 | 9.69180 | 179 ft | 4 kts | 143° |
| 2026-05-04 08:43 | 52.45795 | 9.69222 | 179 ft | 9 kts | 143° |
| 2026-05-04 08:43 | 52.45760 | 9.69319 | 179 ft | 11 kts | 99° |
| 2026-05-04 08:43 | 52.45741 | 9.69452 | 179 ft | 13 kts | 127° |
| 2026-05-04 08:44 | 52.45684 | 9.69539 | 179 ft | 11 kts | 111° |
| 2026-05-04 08:44 | 52.45677 | 9.69628 | 179 ft | 12 kts | 93° |
| 2026-05-04 08:46 | 52.45579 | 9.70673 | 179 ft | 17 kts | 92° |
| 2026-05-04 08:46 | 52.45573 | 9.70877 | 179 ft | 16 kts | 92° |
| 2026-05-04 08:46 | 52.45552 | 9.71050 | 179 ft | 14 kts | 125° |
| 2026-05-04 08:46 | 52.45479 | 9.71102 | 180 ft | 9 kts | 183° |
| 2026-05-04 08:47 | 52.45447 | 9.71100 | 183 ft | 0 kts | 181° |
| 2026-05-04 08:47 | 52.45440 | 9.71099 | 184 ft | 2 kts | 181° |
| 2026-05-04 08:47 | 52.45413 | 9.71083 | 190 ft | 6 kts | 220° |
| 2026-05-04 08:47 | 52.45404 | 9.71014 | 188 ft | 7 kts | 273° |
| 2026-05-04 08:48 | 52.45410 | 9.70815 | 189 ft | 47 kts | 272° |
| 2026-05-04 08:48 | 52.45438 | 9.69816 | 182 ft | 124 kts | 272° |
| 2026-05-04 08:48 | 52.45468 | 9.68144 | 513 ft | 152 kts | 271° |
| 2026-05-04 08:48 | 52.45511 | 9.66400 | 1293 ft | 152 kts | 273° |
| 2026-05-04 08:49 | 52.45548 | 9.64710 | 2075 ft | 149 kts | 271° |
| 2026-05-04 08:50 | 52.44305 | 9.52181 | 5743 ft | 218 kts | 213° |
| 2026-05-04 08:50 | 52.42981 | 9.50942 | 6585 ft | 220 kts | 212° |
| 2026-05-04 08:51 | 52.41644 | 9.49689 | 7376 ft | 222 kts | 212° |
| 2026-05-04 08:51 | 52.40298 | 9.48421 | 8186 ft | 224 kts | 213° |
| 2026-05-04 08:51 | 52.38938 | 9.47141 | 8977 ft | 227 kts | 213° |
| 2026-05-04 08:51 | 52.37562 | 9.45846 | 9764 ft | 230 kts | 213° |
| 2026-05-04 08:52 | 52.36169 | 9.44537 | 10498 ft | 232 kts | 213° |
| 2026-05-04 08:52 | 52.34767 | 9.43221 | 11244 ft | 233 kts | 213° |
| 2026-05-04 08:52 | 52.33276 | 9.42139 | 11967 ft | 239 kts | 198° |
| 2026-05-04 08:52 | 52.31569 | 9.41853 | 12399 ft | 261 kts | 180° |
| 2026-05-04 08:53 | 52.29677 | 9.42135 | 12610 ft | 285 kts | 179° |
| 2026-05-04 08:54 | 52.13613 | 9.44600 | 16192 ft | 347 kts | 178° |
| 2026-05-04 08:55 | 52.11196 | 9.44962 | 16781 ft | 351 kts | 178° |
| 2026-05-04 08:55 | 52.08760 | 9.45327 | 16963 ft | 351 kts | 178° |
| 2026-05-04 08:55 | 52.06358 | 9.45689 | 17011 ft | 343 kts | 178° |
| 2026-05-04 08:55 | 52.03990 | 9.46046 | 17008 ft | 341 kts | 179° |
| 2026-05-04 08:57 | 51.87512 | 9.48481 | 17015 ft | 339 kts | 179° |
| 2026-05-04 09:01 | 51.56789 | 9.39934 | 17041 ft | 326 kts | 212° |
| 2026-05-04 09:01 | 51.54832 | 9.38088 | 17042 ft | 326 kts | 212° |
| 2026-05-04 09:01 | 51.52880 | 9.36242 | 17035 ft | 326 kts | 212° |
| 2026-05-04 09:01 | 51.50924 | 9.34395 | 17034 ft | 326 kts | 212° |
| 2026-05-04 09:02 | 51.48971 | 9.32557 | 17036 ft | 326 kts | 212° |
| 2026-05-04 09:02 | 51.47016 | 9.30717 | 17035 ft | 326 kts | 212° |
| 2026-05-04 09:02 | 51.45061 | 9.28883 | 17036 ft | 326 kts | 211° |
| 2026-05-04 09:02 | 51.42979 | 9.27461 | 17024 ft | 328 kts | 198° |
| 2026-05-04 09:03 | 51.40725 | 9.26840 | 17028 ft | 331 kts | 186° |
| 2026-05-04 09:03 | 51.38412 | 9.26901 | 17028 ft | 333 kts | 181° |
| 2026-05-04 09:03 | 51.36096 | 9.27021 | 17028 ft | 333 kts | 181° |
| 2026-05-04 09:03 | 51.33777 | 9.27132 | 17028 ft | 333 kts | 181° |
| 2026-05-04 09:04 | 51.31460 | 9.27239 | 17035 ft | 333 kts | 181° |
| 2026-05-04 09:04 | 51.29140 | 9.27346 | 17038 ft | 333 kts | 181° |
| 2026-05-04 09:04 | 51.26823 | 9.27452 | 17039 ft | 333 kts | 181° |
| 2026-05-04 09:04 | 51.24502 | 9.27559 | 17041 ft | 334 kts | 181° |
| 2026-05-04 09:05 | 51.22183 | 9.27665 | 17043 ft | 334 kts | 181° |
| 2026-05-04 09:05 | 51.19861 | 9.27769 | 17034 ft | 334 kts | 181° |
| 2026-05-04 09:05 | 51.17540 | 9.27872 | 17036 ft | 334 kts | 181° |
| 2026-05-04 09:05 | 51.15217 | 9.27977 | 17038 ft | 334 kts | 181° |
| 2026-05-04 09:06 | 51.12894 | 9.28082 | 17040 ft | 334 kts | 181° |
| 2026-05-04 09:07 | 50.96624 | 9.27811 | 17044 ft | 334 kts | 183° |
| 2026-05-04 09:08 | 50.94300 | 9.27978 | 17043 ft | 336 kts | 173° |
| 2026-05-04 09:08 | 50.92063 | 9.28927 | 17038 ft | 340 kts | 161° |
| 2026-05-04 09:08 | 50.89940 | 9.30621 | 17037 ft | 343 kts | 154° |
| 2026-05-04 09:08 | 50.87828 | 9.32481 | 17036 ft | 343 kts | 154° |
| 2026-05-04 09:09 | 50.85734 | 9.34308 | 17042 ft | 343 kts | 154° |
| 2026-05-04 09:09 | 50.83643 | 9.36126 | 17043 ft | 343 kts | 154° |
| 2026-05-04 09:09 | 50.81550 | 9.37942 | 17033 ft | 343 kts | 155° |
| 2026-05-04 09:09 | 50.79457 | 9.39754 | 16974 ft | 340 kts | 154° |
| 2026-05-04 09:10 | 50.77420 | 9.41521 | 16712 ft | 329 kts | 154° |
| 2026-05-04 09:10 | 50.75437 | 9.43241 | 16367 ft | 322 kts | 154° |
| 2026-05-04 09:10 | 50.73489 | 9.44932 | 15966 ft | 317 kts | 154° |
| 2026-05-04 09:10 | 50.71571 | 9.46598 | 15600 ft | 312 kts | 154° |
| 2026-05-04 09:11 | 50.69679 | 9.48237 | 15230 ft | 309 kts | 154° |
| 2026-05-04 09:11 | 50.67805 | 9.49855 | 14864 ft | 305 kts | 154° |
| 2026-05-04 09:11 | 50.65954 | 9.51447 | 14491 ft | 302 kts | 154° |
| 2026-05-04 09:11 | 50.64119 | 9.53023 | 14131 ft | 299 kts | 154° |
| 2026-05-04 09:12 | 50.62324 | 9.54564 | 13761 ft | 297 kts | 154° |
| 2026-05-04 09:12 | 50.60513 | 9.56090 | 13369 ft | 293 kts | 159° |
| 2026-05-04 09:14 | 50.47612 | 9.55308 | 10849 ft | 261 kts | 226° |
| 2026-05-04 09:14 | 50.46565 | 9.52950 | 10326 ft | 266 kts | 245° |
| 2026-05-04 09:14 | 50.45981 | 9.50173 | 9845 ft | 270 kts | 253° |
| 2026-05-04 09:14 | 50.45453 | 9.47338 | 9346 ft | 271 kts | 253° |
| 2026-05-04 09:15 | 50.44920 | 9.44510 | 8968 ft | 268 kts | 253° |
| 2026-05-04 09:15 | 50.44389 | 9.41712 | 8573 ft | 266 kts | 252° |
| 2026-05-04 09:15 | 50.43861 | 9.38936 | 8195 ft | 265 kts | 253° |
| 2026-05-04 09:15 | 50.43338 | 9.36173 | 7807 ft | 263 kts | 252° |
| 2026-05-04 09:17 | 50.31935 | 9.26061 | 5430 ft | 235 kts | 197° |
| 2026-05-04 09:18 | 50.30363 | 9.25399 | 5221 ft | 236 kts | 197° |
| 2026-05-04 09:18 | 50.28765 | 9.24727 | 5049 ft | 239 kts | 197° |
| 2026-05-04 09:18 | 50.27161 | 9.24051 | 5011 ft | 239 kts | 197° |
| 2026-05-04 09:18 | 50.25548 | 9.23371 | 5015 ft | 240 kts | 197° |
| 2026-05-04 09:19 | 50.23950 | 9.22698 | 5012 ft | 233 kts | 197° |
| 2026-05-04 09:19 | 50.22453 | 9.21871 | 5013 ft | 226 kts | 209° |
| 2026-05-04 09:19 | 50.21164 | 9.20493 | 5016 ft | 224 kts | 223° |
| 2026-05-04 09:19 | 50.20144 | 9.18656 | 5016 ft | 224 kts | 237° |
| 2026-05-04 09:20 | 50.19459 | 9.16483 | 5015 ft | 224 kts | 250° |
| 2026-05-04 09:20 | 50.18935 | 9.14189 | 5014 ft | 224 kts | 249° |
| 2026-05-04 09:20 | 50.18403 | 9.11899 | 5015 ft | 224 kts | 249° |
| 2026-05-04 09:20 | 50.17867 | 9.09607 | 5015 ft | 227 kts | 249° |
| 2026-05-04 09:21 | 50.17308 | 9.07300 | 5012 ft | 227 kts | 249° |
| 2026-05-04 09:21 | 50.16761 | 9.04987 | 5013 ft | 228 kts | 249° |
| 2026-05-04 09:21 | 50.16219 | 9.02670 | 5013 ft | 227 kts | 249° |
| 2026-05-04 09:21 | 50.15678 | 9.00350 | 5012 ft | 228 kts | 249° |
| 2026-05-04 09:22 | 50.15136 | 8.98031 | 5007 ft | 227 kts | 249° |
| 2026-05-04 09:22 | 50.14594 | 8.95718 | 5009 ft | 228 kts | 249° |
| 2026-05-04 09:22 | 50.14051 | 8.93401 | 5015 ft | 228 kts | 249° |
| 2026-05-04 09:22 | 50.13508 | 8.91085 | 5009 ft | 227 kts | 249° |
| 2026-05-04 09:23 | 50.12967 | 8.88779 | 5016 ft | 224 kts | 249° |
| 2026-05-04 09:23 | 50.12447 | 8.86566 | 4988 ft | 211 kts | 249° |
| 2026-05-04 09:23 | 50.11951 | 8.84459 | 4762 ft | 205 kts | 249° |
| 2026-05-04 09:23 | 50.11468 | 8.82406 | 4493 ft | 198 kts | 249° |
| 2026-05-04 09:25 | 50.08651 | 8.70485 | 2814 ft | 159 kts | 249° |
| 2026-05-04 09:25 | 50.08281 | 8.68924 | 2603 ft | 148 kts | 249° |
| 2026-05-04 09:26 | 50.07935 | 8.67466 | 2397 ft | 140 kts | 249° |
| 2026-05-04 09:26 | 50.07604 | 8.66071 | 2200 ft | 138 kts | 249° |
| 2026-05-04 09:26 | 50.07274 | 8.64680 | 2004 ft | 136 kts | 248° |
| 2026-05-04 09:26 | 50.06945 | 8.63297 | 1803 ft | 136 kts | 248° |
| 2026-05-04 09:27 | 50.06617 | 8.61915 | 1620 ft | 135 kts | 249° |
| 2026-05-04 09:27 | 50.06288 | 8.60536 | 1417 ft | 136 kts | 248° |
| 2026-05-04 09:27 | 50.05962 | 8.59163 | 1207 ft | 134 kts | 248° |
| 2026-05-04 09:27 | 50.05630 | 8.57789 | 1021 ft | 136 kts | 249° |
| 2026-05-04 09:28 | 50.05301 | 8.56390 | 808 ft | 138 kts | 249° |
| 2026-05-04 09:28 | 50.04970 | 8.55002 | 633 ft | 137 kts | 249° |
| 2026-05-04 09:28 | 50.04638 | 8.53603 | 462 ft | 138 kts | 249° |
| 2026-05-04 09:28 | 50.04302 | 8.52226 | 351 ft | 130 kts | 249° |
| 2026-05-04 09:29 | 50.04031 | 8.51069 | 327 ft | 92 kts | 250° |
| 2026-05-04 09:29 | 50.03886 | 8.50472 | 321 ft | 29 kts | 241° |
| 2026-05-04 09:29 | 50.03758 | 8.50273 | 319 ft | 25 kts | 221° |
| 2026-05-04 09:29 | 50.03679 | 8.50188 | 321 ft | 5 kts | 197° |
| 2026-05-04 09:30 | 50.03656 | 8.50185 | 323 ft | 2 kts | 177° |
| 2026-05-04 09:30 | 50.03635 | 8.50209 | 322 ft | 8 kts | 126° |
| 2026-05-04 09:30 | 50.03640 | 8.50328 | 324 ft | 13 kts | 74° |
| 2026-05-04 09:30 | 50.03670 | 8.50459 | 326 ft | 13 kts | 69° |
| 2026-05-04 09:31 | 50.03704 | 8.50596 | 329 ft | 14 kts | 69° |
| 2026-05-04 09:31 | 50.03746 | 8.50775 | 331 ft | 20 kts | 70° |
| 2026-05-04 09:31 | 50.03795 | 8.50981 | 332 ft | 21 kts | 69° |
| 2026-05-04 09:31 | 50.03847 | 8.51198 | 336 ft | 22 kts | 69° |
| 2026-05-04 09:32 | 50.03899 | 8.51414 | 333 ft | 21 kts | 69° |
| 2026-05-04 09:32 | 50.03952 | 8.51638 | 333 ft | 23 kts | 70° |
| 2026-05-04 09:34 | 50.04349 | 8.53297 | 367 ft | 19 kts | 69° |
| 2026-05-04 09:34 | 50.04391 | 8.53477 | 374 ft | 16 kts | 75° |
| 2026-05-04 09:34 | 50.04406 | 8.53655 | 375 ft | 18 kts | 84° |
| 2026-05-04 09:34 | 50.04417 | 8.53855 | 376 ft | 20 kts | 84° |
| 2026-05-04 09:35 | 50.04433 | 8.54077 | 376 ft | 22 kts | 84° |
| 2026-05-04 09:35 | 50.04449 | 8.54320 | 374 ft | 23 kts | 84° |
| 2026-05-04 09:35 | 50.04440 | 8.54552 | 369 ft | 23 kts | 109° |
| 2026-05-04 09:35 | 50.04375 | 8.54707 | 364 ft | 13 kts | 137° |
| 2026-05-04 09:37 | 50.04129 | 8.55478 | 356 ft | 20 kts | 69° |
| 2026-05-04 09:37 | 50.04179 | 8.55686 | 359 ft | 21 kts | 69° |
| 2026-05-04 09:38 | 50.04232 | 8.55907 | 359 ft | 20 kts | 70° |
| 2026-05-04 09:38 | 50.04279 | 8.56056 | 356 ft | 12 kts | 38° |
| 2026-05-04 09:38 | 50.04358 | 8.56046 | 363 ft | 12 kts | 340° |
| 2026-05-04 09:38 | 50.04438 | 8.56070 | 360 ft | 14 kts | 53° |
| 2026-05-04 09:39 | 50.04477 | 8.56220 | 361 ft | 16 kts | 69° |
| 2026-05-04 09:39 | 50.04499 | 8.56299 | 363 ft | 4 kts | 44° |
| 2026-05-04 09:39 | 50.04528 | 8.56294 | 356 ft | 5 kts | 342° |
| 2026-05-04 09:39 | 50.04551 | 8.56298 | 359 ft | 2 kts | 24° |
| 2026-05-04 09:40 | 50.04559 | 8.56307 | 356 ft | 1 kts | 33° |
| 2026-05-04 09:40 | 50.04561 | 8.56309 | 356 ft | 0 kts | 35° |